createdAt,value
2023-05-05T00:00:16.156Z,14.70
2023-05-05T00:03:20.835Z,13.60
2023-05-05T00:06:23.073Z,14.65
2023-05-05T00:09:25.183Z,13.20
2023-05-05T00:12:27.742Z,12.13
2023-05-05T00:15:29.792Z,12.83
2023-05-05T00:18:33.894Z,11.18
2023-05-05T00:21:36.026Z,13.95
2023-05-05T00:24:37.972Z,12.77
2023-05-05T00:27:41.042Z,13.33
2023-05-05T00:30:43.155Z,14.57
2023-05-05T00:33:45.445Z,11.82
2023-05-05T00:36:47.791Z,11.38
2023-05-05T00:39:49.861Z,12.50
2023-05-05T00:42:52.514Z,12.00
2023-05-05T00:46:06.534Z,12.40
2023-05-05T00:49:08.869Z,12.68
2023-05-05T00:52:11.600Z,12.43
2023-05-05T00:55:13.760Z,11.88
2023-05-05T00:58:15.848Z,13.23
2023-05-05T01:01:18.047Z,12.87
2023-05-05T01:04:19.981Z,14.07
2023-05-05T01:07:41.315Z,11.48
2023-05-05T01:10:55.250Z,13.18
2023-05-05T01:14:40.377Z,12.57
2023-05-05T01:17:47.950Z,12.40
2023-05-05T01:21:02.065Z,12.32
2023-05-05T01:24:39.100Z,16.95
2023-05-05T01:27:55.795Z,11.68
2023-05-05T01:31:18.031Z,12.67
2023-05-05T01:34:25.529Z,14.77
2023-05-05T01:37:49.411Z,15.05
2023-05-05T01:41:03.854Z,15.02
2023-05-05T01:44:08.368Z,14.00
2023-05-05T01:47:15.952Z,11.37
2023-05-05T01:50:18.834Z,13.27
2023-05-05T01:53:24.177Z,14.63
2023-05-05T01:56:27.556Z,12.95
2023-05-05T01:59:30.345Z,12.23
2023-05-05T02:02:35.232Z,11.53
2023-05-05T02:05:39.814Z,11.47
2023-05-05T02:08:43.798Z,11.52
2023-05-05T02:11:46.205Z,12.82
2023-05-05T02:14:49.370Z,11.40
2023-05-05T02:17:53.070Z,13.27
2023-05-05T02:20:56.102Z,12.67
2023-05-05T02:23:58.685Z,10.60
2023-05-05T02:27:04.046Z,10.82
2023-05-05T02:30:11.318Z,12.18
2023-05-05T02:33:18.209Z,10.00
2023-05-05T02:36:22.530Z,12.67
2023-05-05T02:39:35.933Z,12.25
2023-05-05T02:42:46.463Z,10.82
2023-05-05T02:45:48.549Z,11.38
2023-05-05T02:48:50.648Z,11.27
2023-05-05T02:51:52.785Z,10.83
2023-05-05T02:54:54.806Z,12.37
2023-05-05T02:58:14.318Z,9.65
2023-05-05T03:01:17.093Z,11.90
2023-05-05T03:04:41.852Z,12.97
2023-05-05T03:08:00.354Z,12.53
2023-05-05T03:11:08.076Z,11.48
2023-05-05T03:14:17.315Z,11.02
2023-05-05T03:17:21.709Z,11.27
2023-05-05T03:20:25.973Z,13.00
2023-05-05T03:23:28.075Z,11.33
2023-05-05T03:26:29.966Z,14.48
2023-05-05T03:29:31.906Z,11.00
2023-05-05T03:32:33.976Z,10.95
2023-05-05T03:35:36.118Z,12.53
2023-05-05T03:38:38.191Z,11.70
2023-05-05T03:41:40.191Z,11.10
2023-05-05T03:44:42.156Z,12.88
2023-05-05T03:47:44.161Z,11.73
2023-05-05T03:50:46.367Z,12.40
2023-05-05T03:53:48.305Z,14.30
2023-05-05T03:56:50.348Z,11.75
2023-05-05T03:59:52.683Z,12.45
2023-05-05T04:02:54.720Z,9.93
2023-05-05T04:05:56.724Z,12.07
2023-05-05T04:08:58.701Z,10.20
2023-05-05T04:12:01.630Z,11.57
2023-05-05T04:15:04.131Z,10.85
2023-05-05T04:18:06.206Z,10.45
2023-05-05T04:21:08.211Z,12.23
2023-05-05T04:24:10.456Z,10.73
2023-05-05T04:27:12.359Z,10.75
2023-05-05T04:30:15.056Z,15.60
2023-05-05T04:33:17.037Z,12.57
2023-05-05T04:36:19.294Z,11.97
2023-05-05T04:39:21.691Z,10.97
2023-05-05T04:42:23.938Z,12.93
2023-05-05T04:45:26.505Z,11.70
2023-05-05T04:48:28.562Z,16.80
2023-05-05T04:51:32.243Z,19.20
2023-05-05T04:54:37.541Z,20.33
2023-05-05T04:57:39.593Z,17.92
2023-05-05T05:00:41.523Z,20.20
2023-05-05T05:03:43.577Z,16.35
2023-05-05T05:06:46.186Z,17.67
2023-05-05T05:09:48.147Z,17.63
2023-05-05T05:12:50.480Z,19.70
2023-05-05T05:15:52.458Z,17.05
2023-05-05T05:18:54.854Z,14.52
2023-05-05T05:21:56.792Z,15.70
2023-05-05T05:24:59.236Z,15.47
2023-05-05T05:28:08.936Z,16.58
2023-05-05T05:31:12.356Z,16.23
2023-05-05T05:34:14.963Z,17.27
2023-05-05T05:37:17.095Z,16.53
2023-05-05T05:40:19.448Z,15.17
2023-05-05T05:43:21.417Z,19.80
2023-05-05T05:46:23.436Z,14.98
2023-05-05T05:49:25.867Z,15.82
2023-05-05T05:52:28.319Z,13.25
2023-05-05T05:55:30.428Z,13.97
2023-05-05T05:58:32.364Z,13.95
2023-05-05T06:01:35.515Z,13.25
2023-05-05T06:04:37.747Z,14.25
2023-05-05T06:07:39.825Z,16.48
2023-05-05T06:10:42.155Z,13.90
2023-05-05T06:13:44.226Z,11.93
2023-05-05T06:16:46.113Z,12.95
2023-05-05T06:19:48.179Z,11.93
2023-05-05T06:22:50.114Z,11.85
2023-05-05T06:25:53.410Z,11.43
2023-05-05T06:28:56.002Z,13.57
2023-05-05T06:31:58.146Z,12.32
2023-05-05T06:35:00.169Z,13.48
2023-05-05T06:38:02.149Z,11.18
2023-05-05T06:41:04.299Z,12.27
2023-05-05T06:44:06.860Z,14.60
2023-05-05T06:47:08.833Z,11.02
2023-05-05T06:50:11.468Z,12.23
2023-05-05T06:53:13.533Z,12.43
2023-05-05T06:56:15.655Z,12.23
2023-05-05T06:59:17.587Z,11.70
2023-05-05T07:02:19.641Z,15.13
2023-05-05T07:05:22.003Z,13.30
2023-05-05T07:08:25.505Z,11.88
2023-05-05T07:11:27.435Z,14.37
2023-05-05T07:14:29.383Z,12.73
2023-05-05T07:17:31.313Z,13.62
2023-05-05T07:20:33.391Z,13.88
2023-05-05T07:23:37.484Z,12.73
2023-05-05T07:26:40.161Z,12.93
2023-05-05T07:29:42.134Z,13.48
2023-05-05T07:32:44.321Z,13.77
2023-05-05T07:35:46.716Z,14.10
2023-05-05T07:38:48.895Z,12.27
2023-05-05T07:41:51.119Z,12.97
2023-05-05T07:44:53.146Z,11.18
2023-05-05T07:47:55.875Z,12.80
2023-05-05T07:50:58.267Z,14.05
2023-05-05T07:54:00.445Z,14.32
2023-05-05T07:57:02.417Z,11.63
2023-05-05T08:00:05.295Z,10.73
2023-05-05T08:03:11.320Z,13.57
2023-05-05T08:06:16.558Z,10.52
2023-05-05T08:09:18.671Z,10.63
2023-05-05T08:12:21.103Z,9.97
2023-05-05T08:15:23.164Z,10.27
2023-05-05T08:21:44.856Z,9.95
2023-05-05T08:24:46.895Z,12.60
2023-05-05T08:27:48.814Z,12.10
2023-05-05T08:30:50.985Z,7.25
2023-05-05T08:33:52.921Z,8.98
2023-05-05T08:36:54.799Z,10.80
2023-05-05T08:39:57.958Z,8.70
2023-05-05T08:43:01.536Z,8.17
2023-05-05T08:46:04.570Z,8.50
2023-05-05T08:49:09.592Z,9.48
2023-05-05T08:52:14.398Z,9.25
2023-05-05T08:55:26.937Z,9.13
2023-05-05T08:58:31.463Z,10.60
2023-05-05T09:01:35.097Z,10.25
2023-05-05T09:04:37.177Z,9.30
2023-05-05T09:07:43.811Z,9.85
2023-05-05T09:10:46.157Z,9.23
2023-05-05T09:17:22.282Z,8.45
2023-05-05T09:20:24.737Z,8.75
2023-05-05T09:23:26.721Z,9.82
2023-05-05T09:26:33.225Z,8.82
2023-05-05T09:29:35.724Z,9.13
2023-05-05T09:32:49.106Z,8.57
2023-05-05T09:35:53.997Z,7.97
2023-05-05T09:39:06.462Z,8.63
2023-05-05T09:42:19.083Z,8.50
2023-05-05T09:45:20.922Z,8.60
2023-05-05T09:48:30.951Z,8.40
2023-05-05T09:51:33.452Z,11.00
2023-05-05T09:54:35.537Z,7.95
2023-05-05T09:57:37.475Z,8.10
2023-05-05T10:00:39.737Z,7.73
2023-05-05T10:03:52.958Z,8.27
2023-05-05T10:06:57.139Z,7.93
2023-05-05T10:09:59.082Z,11.02
2023-05-05T10:13:01.915Z,8.75
2023-05-05T10:16:04.767Z,8.67
2023-05-05T10:19:07.099Z,8.77
2023-05-05T10:22:10.863Z,8.48
2023-05-05T10:25:16.067Z,9.30
2023-05-05T10:28:42.225Z,10.15
2023-05-05T10:31:54.330Z,9.03
2023-05-05T10:35:09.174Z,9.30
2023-05-05T10:38:13.244Z,8.57
2023-05-05T10:41:16.289Z,9.73
2023-05-05T10:44:18.416Z,8.70
2023-05-05T10:47:22.422Z,8.47
2023-05-05T10:50:24.337Z,9.07
2023-05-05T10:53:31.665Z,9.18
2023-05-05T10:56:36.153Z,10.38
2023-05-05T10:59:40.130Z,9.50
2023-05-05T11:02:42.310Z,8.20
2023-05-05T11:06:08.967Z,8.77
2023-05-05T11:09:29.773Z,9.35
2023-05-05T11:12:33.180Z,11.50
2023-05-05T11:15:37.957Z,8.93
2023-05-05T11:18:44.537Z,8.67
2023-05-05T11:22:02.544Z,9.75
2023-05-05T11:25:36.593Z,8.48
2023-05-05T11:29:08.529Z,9.23
2023-05-05T11:32:12.572Z,8.18
2023-05-05T11:35:15.619Z,7.83
2023-05-05T11:38:20.969Z,8.45
2023-05-05T11:41:51.775Z,7.95
2023-05-05T11:44:54.820Z,8.65
2023-05-05T11:48:27.160Z,8.32
2023-05-05T11:51:48.691Z,9.30
2023-05-05T11:54:51.462Z,8.30
2023-05-05T11:57:53.505Z,9.13
2023-05-05T12:00:55.608Z,7.75
2023-05-05T12:03:58.265Z,7.82
2023-05-05T12:07:00.737Z,8.23
2023-05-05T12:10:02.942Z,8.57
2023-05-05T12:13:20.114Z,8.20
2023-05-05T12:16:22.507Z,8.95
2023-05-05T12:19:30.118Z,8.60
2023-05-05T12:22:32.388Z,9.77
2023-05-05T12:25:40.678Z,7.43
2023-05-05T12:28:46.651Z,8.55
2023-05-05T12:31:49.125Z,7.78
2023-05-05T12:34:57.537Z,8.45
2023-05-05T12:38:00.008Z,7.97
2023-05-05T12:41:03.007Z,9.07
2023-05-05T12:44:05.360Z,7.75
2023-05-05T12:47:07.773Z,11.73
2023-05-05T12:50:10.509Z,8.00
2023-05-05T12:53:21.158Z,7.87
2023-05-05T12:56:33.638Z,8.25
2023-05-05T12:59:35.739Z,8.68
2023-05-05T13:02:38.006Z,7.60
2023-05-05T13:05:41.246Z,8.40
2023-05-05T13:08:43.866Z,8.97
2023-05-05T13:11:46.036Z,7.97
2023-05-05T13:14:48.489Z,8.80
2023-05-05T13:17:50.873Z,8.90
2023-05-05T13:20:52.912Z,8.73
2023-05-05T13:24:01.599Z,10.47
2023-05-05T13:27:14.204Z,8.07
2023-05-05T13:30:16.244Z,7.97
2023-05-05T13:33:18.271Z,8.52
2023-05-05T13:36:20.326Z,7.47
2023-05-05T13:39:22.818Z,8.63
2023-05-05T13:42:25.035Z,9.45
2023-05-05T13:45:26.989Z,8.60
2023-05-05T13:48:29.171Z,7.93
2023-05-05T13:51:31.241Z,7.90
2023-05-05T13:54:33.192Z,8.17
2023-05-05T13:57:35.194Z,10.52
2023-05-05T14:00:37.985Z,7.70
2023-05-05T14:03:40.145Z,8.13
2023-05-05T14:06:42.082Z,9.13
2023-05-05T14:09:44.134Z,8.30
2023-05-05T14:12:46.247Z,7.93
2023-05-05T14:15:50.368Z,7.70
2023-05-05T14:18:52.571Z,7.25
2023-05-05T14:21:54.561Z,7.68
2023-05-05T14:24:57.006Z,7.63
2023-05-05T14:27:58.970Z,10.38
2023-05-05T14:31:01.008Z,8.35
2023-05-05T14:34:03.225Z,7.62
2023-05-05T14:37:05.203Z,7.55
2023-05-05T14:40:07.838Z,8.17
2023-05-05T14:43:09.891Z,7.47
2023-05-05T14:46:12.000Z,7.55
2023-05-05T14:49:14.107Z,7.35
2023-05-05T14:52:16.076Z,8.38
2023-05-05T14:55:18.226Z,8.53
2023-05-05T14:58:22.480Z,9.70
2023-05-05T15:01:27.655Z,7.40
2023-05-05T15:04:29.752Z,7.20
2023-05-05T15:07:31.706Z,7.85
2023-05-05T15:10:33.780Z,7.77
2023-05-05T15:13:38.596Z,7.28
2023-05-05T15:16:41.062Z,6.97
2023-05-05T15:19:43.017Z,7.20
2023-05-05T15:22:45.058Z,7.55
2023-05-05T15:25:47.162Z,8.50
2023-05-05T15:28:50.420Z,7.50
2023-05-05T15:31:52.829Z,7.82
2023-05-05T15:34:56.378Z,10.30
2023-05-05T15:37:58.424Z,6.87
2023-05-05T15:41:00.560Z,7.40
2023-05-05T15:44:04.507Z,8.07
2023-05-05T15:47:11.001Z,8.05
2023-05-05T15:50:13.050Z,9.52
2023-05-05T15:53:15.084Z,7.85
2023-05-05T15:56:17.284Z,7.63
2023-05-05T15:59:19.423Z,7.65
2023-05-05T16:02:22.154Z,7.60
2023-05-05T16:05:24.144Z,8.02
2023-05-05T16:08:26.144Z,8.05
2023-05-05T16:11:28.568Z,7.60
2023-05-05T16:14:32.237Z,7.35
2023-05-05T16:17:34.299Z,9.35
2023-05-05T16:20:36.305Z,7.78
2023-05-05T16:23:38.404Z,7.75
2023-05-05T16:26:40.330Z,11.60
2023-05-05T16:29:42.209Z,7.75
2023-05-05T16:32:44.487Z,9.07
2023-05-05T16:35:46.661Z,7.30
2023-05-05T16:38:49.800Z,7.37
2023-05-05T16:41:52.585Z,7.80
2023-05-05T16:44:54.705Z,7.37
2023-05-05T16:47:56.733Z,7.22
2023-05-05T16:50:58.827Z,9.20
2023-05-05T16:54:00.942Z,7.65
2023-05-05T16:57:03.858Z,7.47
2023-05-05T17:00:07.333Z,9.63
2023-05-05T17:03:09.346Z,9.40
2023-05-05T17:06:13.079Z,8.45
2023-05-05T17:09:15.542Z,8.30
2023-05-05T17:12:17.712Z,8.53
2023-05-05T17:15:19.765Z,7.70
2023-05-05T17:18:22.830Z,7.37
2023-05-05T17:21:24.814Z,7.93
2023-05-05T17:24:26.818Z,8.90
2023-05-05T17:27:28.859Z,7.40
2023-05-05T17:30:30.949Z,8.20
2023-05-05T17:33:32.870Z,10.00
2023-05-05T17:36:35.545Z,8.00
2023-05-05T17:39:37.769Z,8.18
2023-05-05T17:42:40.635Z,7.77
2023-05-05T17:45:42.627Z,8.70
2023-05-05T17:48:45.015Z,8.98
2023-05-05T17:51:47.141Z,8.48
2023-05-05T17:54:49.863Z,8.70
2023-05-05T17:57:51.911Z,9.17
2023-05-05T18:00:53.861Z,13.00
2023-05-05T18:03:56.575Z,8.63
2023-05-05T18:06:58.550Z,11.18
2023-05-05T18:10:00.763Z,9.35
2023-05-05T18:13:02.814Z,8.87
2023-05-05T18:16:05.659Z,8.77
2023-05-05T18:19:08.215Z,8.90
2023-05-05T18:22:10.710Z,11.10
2023-05-05T18:25:12.944Z,9.25
2023-05-05T18:28:15.305Z,11.73
2023-05-05T18:31:17.479Z,12.00
2023-05-05T18:34:20.627Z,11.50
2023-05-05T18:37:22.695Z,9.68
2023-05-05T18:40:24.721Z,9.70
2023-05-05T18:43:26.856Z,13.07
2023-05-05T18:46:29.157Z,11.40
2023-05-05T18:49:31.742Z,13.02
2023-05-05T18:52:34.498Z,11.07
2023-05-05T18:55:36.877Z,11.80
2023-05-05T18:58:39.302Z,11.47
2023-05-05T19:01:43.017Z,10.85
2023-05-05T19:04:46.614Z,11.75
2023-05-05T19:07:49.070Z,11.48
2023-05-05T19:10:51.439Z,12.93
2023-05-05T19:13:53.658Z,13.10
2023-05-05T19:17:02.214Z,11.82
2023-05-05T19:20:04.704Z,11.18
2023-05-05T19:23:07.179Z,13.27
2023-05-05T19:26:10.405Z,10.32
2023-05-05T19:29:12.798Z,11.00
2023-05-05T19:32:15.082Z,14.48
2023-05-05T19:35:17.642Z,14.68
2023-05-05T19:38:19.536Z,18.02
2023-05-05T19:41:21.579Z,14.80
2023-05-05T19:44:23.895Z,14.27
2023-05-05T19:47:26.187Z,17.55
2023-05-05T19:50:30.379Z,14.57
2023-05-05T19:53:32.438Z,13.98
2023-05-05T19:56:34.438Z,16.35
2023-05-05T19:59:36.466Z,14.57
2023-05-05T20:02:38.800Z,12.30
2023-05-05T20:05:41.161Z,13.45
2023-05-05T20:08:43.145Z,13.73
2023-05-05T20:11:45.200Z,17.25
2023-05-05T20:14:47.518Z,13.80
2023-05-05T20:17:49.887Z,15.63
2023-05-05T20:20:51.898Z,14.15
2023-05-05T20:23:56.634Z,14.60
2023-05-05T20:26:58.653Z,13.77
2023-05-05T20:30:00.548Z,14.90
2023-05-05T20:33:02.655Z,16.42
2023-05-05T20:36:05.031Z,15.88
2023-05-05T20:39:08.117Z,15.20
2023-05-05T20:42:11.204Z,17.25
2023-05-05T20:45:13.457Z,15.40
2023-05-05T20:48:15.570Z,14.07
2023-05-05T20:51:17.500Z,14.05
2023-05-05T20:54:19.499Z,16.02
2023-05-05T20:57:21.743Z,12.80
2023-05-05T21:00:24.267Z,13.63
2023-05-05T21:03:26.327Z,15.18
2023-05-05T21:06:28.353Z,12.88
2023-05-05T21:09:31.652Z,13.00
2023-05-05T21:12:34.633Z,14.10
2023-05-05T21:15:37.612Z,13.87
2023-05-05T21:18:39.850Z,14.82
2023-05-05T21:21:41.824Z,12.37
2023-05-05T21:24:44.071Z,20.90
2023-05-05T21:27:48.032Z,12.43
2023-05-05T21:31:10.261Z,13.33
2023-05-05T21:34:13.585Z,14.63
2023-05-05T21:37:15.791Z,13.20
2023-05-05T21:40:23.008Z,13.30
2023-05-05T21:43:30.644Z,14.48
2023-05-05T21:46:32.805Z,13.73
2023-05-05T21:49:34.845Z,13.57
2023-05-05T21:52:36.928Z,15.25
2023-05-05T21:55:38.986Z,14.27
2023-05-05T21:58:41.614Z,16.05
2023-05-05T22:01:43.827Z,16.70
2023-05-05T22:04:48.801Z,15.35
2023-05-05T22:07:50.840Z,14.10
2023-05-05T22:10:52.890Z,13.68
2023-05-05T22:13:56.098Z,13.00
2023-05-05T22:16:58.130Z,13.27
2023-05-05T22:20:00.081Z,11.63
2023-05-05T22:23:02.052Z,12.35
2023-05-05T22:26:04.973Z,14.05
2023-05-05T22:29:07.063Z,11.60
2023-05-05T22:32:09.135Z,13.90
2023-05-05T22:35:11.290Z,14.15
2023-05-05T22:38:13.589Z,12.15
2023-05-05T22:41:16.136Z,14.30
2023-05-05T22:44:18.103Z,15.35
2023-05-05T22:47:20.133Z,14.23
2023-05-05T22:50:22.318Z,11.68
2023-05-05T22:53:24.535Z,11.57
2023-05-05T22:56:26.706Z,12.52
2023-05-05T22:59:28.655Z,13.35
2023-05-05T23:02:30.692Z,13.80
2023-05-05T23:05:34.465Z,14.27
2023-05-05T23:08:36.475Z,13.15
2023-05-05T23:11:38.615Z,14.45
2023-05-05T23:14:40.642Z,12.37
2023-05-05T23:17:42.666Z,12.87
2023-05-05T23:20:44.669Z,11.93
2023-05-05T23:23:48.533Z,12.77
2023-05-05T23:26:51.989Z,12.57
2023-05-05T23:29:53.905Z,12.83
2023-05-05T23:32:57.561Z,12.47
2023-05-05T23:35:59.615Z,13.45
2023-05-05T23:39:01.775Z,12.32
2023-05-05T23:42:03.785Z,12.60
2023-05-05T23:45:06.513Z,13.30
2023-05-05T23:48:08.800Z,11.37
2023-05-05T23:51:10.873Z,12.07
2023-05-05T23:54:12.783Z,11.70
2023-05-05T23:57:14.956Z,13.10
